createdAt,value
2019-05-15T00:02:29.641Z,8.23
2019-05-15T00:05:01.561Z,8.21
2019-05-15T00:07:33.169Z,8.21
2019-05-15T00:10:09.132Z,8.18
2019-05-15T00:12:41.296Z,8.18
2019-05-15T00:15:13.101Z,8.15
2019-05-15T00:17:44.817Z,8.14
2019-05-15T00:20:16.590Z,8.14
2019-05-15T00:22:48.550Z,8.12
2019-05-15T00:25:22.713Z,8.08
2019-05-15T00:27:53.955Z,8.06
2019-05-15T00:30:25.860Z,8.05
2019-05-15T00:32:59.394Z,8.04
2019-05-15T00:35:32.391Z,8.05
2019-05-15T00:38:04.164Z,8.00
2019-05-15T00:40:38.812Z,7.98
2019-05-15T00:43:09.290Z,8.00
2019-05-15T00:45:44.425Z,7.98
2019-05-15T00:48:15.395Z,7.94
2019-05-15T00:50:48.545Z,7.95
2019-05-15T00:53:20.514Z,7.95
2019-05-15T00:55:52.247Z,7.93
2019-05-15T00:58:23.976Z,7.93
2019-05-15T01:00:55.806Z,7.90
2019-05-15T01:03:27.845Z,7.86
2019-05-15T01:05:59.940Z,7.84
2019-05-15T01:08:32.559Z,7.84
2019-05-15T01:11:05.674Z,7.83
2019-05-15T01:13:38.851Z,7.80
2019-05-15T01:16:12.415Z,7.76
2019-05-15T01:18:44.237Z,7.74
2019-05-15T01:21:18.768Z,7.69
2019-05-15T01:23:50.215Z,7.64
2019-05-15T01:26:21.920Z,7.59
2019-05-15T01:28:53.739Z,7.52
2019-05-15T01:31:25.538Z,7.46
2019-05-15T01:33:58.354Z,7.38
2019-05-15T01:36:31.421Z,7.33
2019-05-15T01:39:07.853Z,8.43
2019-05-15T01:41:40.692Z,9.67
2019-05-15T01:44:12.507Z,9.43
2019-05-15T01:46:44.341Z,9.09
2019-05-15T01:49:16.053Z,8.87
2019-05-15T01:51:48.096Z,8.64
2019-05-15T01:54:20.201Z,8.46
2019-05-15T01:56:51.939Z,8.31
2019-05-15T01:59:23.655Z,8.15
2019-05-15T02:01:58.887Z,8.02
2019-05-15T02:04:29.978Z,7.91
2019-05-15T02:07:02.127Z,7.74
2019-05-15T02:09:33.851Z,8.77
2019-05-15T02:12:05.746Z,10.61
2019-05-15T02:14:39.214Z,11.14
2019-05-15T02:17:10.978Z,10.63
2019-05-15T02:19:42.694Z,10.19
2019-05-15T02:22:14.454Z,9.85
2019-05-15T02:24:48.243Z,9.60
2019-05-15T02:27:19.575Z,9.33
2019-05-15T02:29:51.284Z,9.06
2019-05-15T02:32:23.023Z,8.81
2019-05-15T02:34:54.744Z,8.57
2019-05-15T02:37:29.415Z,8.36
2019-05-15T02:40:00.772Z,8.82
2019-05-15T02:42:32.877Z,10.44
2019-05-15T02:45:09.683Z,10.82
2019-05-15T02:47:40.413Z,10.26
2019-05-15T02:50:12.535Z,9.89
2019-05-15T02:52:45.528Z,9.53
2019-05-15T02:55:19.691Z,9.22
2019-05-15T02:57:50.813Z,8.94
2019-05-15T03:00:37.743Z,8.71
2019-05-15T03:02:59.913Z,8.59
2019-05-15T03:05:30.011Z,10.13
2019-05-15T03:08:03.375Z,11.54
2019-05-15T03:10:39.955Z,11.14
2019-05-15T03:13:10.418Z,10.57
2019-05-15T03:15:42.573Z,10.10
2019-05-15T03:18:21.953Z,9.77
2019-05-15T03:20:54.258Z,9.39
2019-05-15T03:23:29.178Z,9.11
2019-05-15T03:26:04.289Z,10.47
2019-05-15T03:28:34.346Z,12.16
2019-05-15T03:31:26.523Z,12.86
2019-05-15T03:33:46.046Z,12.28
2019-05-15T03:36:15.441Z,11.64
2019-05-15T03:38:53.409Z,11.09
2019-05-15T03:41:25.197Z,10.68
2019-05-15T03:43:59.494Z,10.26
2019-05-15T03:46:30.149Z,9.86
2019-05-15T03:49:02.060Z,9.50
2019-05-15T03:51:33.579Z,9.21
2019-05-15T03:54:05.430Z,10.17
2019-05-15T03:56:39.406Z,11.83
2019-05-15T03:59:10.509Z,13.31
2019-05-15T04:01:43.895Z,13.10
2019-05-15T04:04:18.866Z,12.15
2019-05-15T04:06:50.154Z,11.59
2019-05-15T04:09:22.372Z,11.16
2019-05-15T04:11:54.192Z,10.72
2019-05-15T04:14:25.995Z,10.27
2019-05-15T04:16:59.505Z,9.86
2019-05-15T04:19:31.603Z,10.89
2019-05-15T04:22:04.290Z,12.49
2019-05-15T04:24:39.223Z,12.45
2019-05-15T04:27:12.296Z,11.72
2019-05-15T04:29:44.159Z,11.11
2019-05-15T04:32:19.745Z,10.70
2019-05-15T04:34:49.452Z,10.29
2019-05-15T04:37:21.015Z,10.98
2019-05-15T04:39:52.729Z,12.56
2019-05-15T04:42:24.474Z,13.10
2019-05-15T04:44:56.332Z,12.37
2019-05-15T14:32:41.286Z,12.95
2019-05-15T14:35:13.335Z,14.66
2019-05-15T14:38:00.010Z,16.18
2019-05-15T14:40:26.711Z,17.69
2019-05-15T14:42:59.194Z,18.88
2019-05-15T14:45:30.001Z,18.99
2019-05-15T14:48:01.679Z,18.16
2019-05-15T14:50:35.542Z,17.63
2019-05-15T14:53:09.904Z,17.19
2019-05-15T14:55:49.022Z,16.80
2019-05-15T14:58:20.443Z,16.40
2019-05-15T15:00:55.370Z,16.00
2019-05-15T15:03:28.951Z,15.67
2019-05-15T15:06:10.014Z,15.32
2019-05-15T15:08:46.490Z,15.03
2019-05-15T15:11:28.308Z,15.91
2019-05-15T15:13:53.353Z,17.58
2019-05-15T15:16:25.145Z,17.97
2019-05-15T15:18:58.486Z,17.46
2019-05-15T15:21:30.932Z,17.11
2019-05-15T15:24:02.798Z,16.86
2019-05-15T15:26:34.545Z,16.55
2019-05-15T15:29:08.313Z,16.32
2019-05-15T15:31:39.765Z,16.05
2019-05-15T15:34:11.685Z,15.83
2019-05-15T15:36:43.273Z,15.62
2019-05-15T15:39:14.978Z,15.38
2019-05-15T15:41:48.538Z,15.60
2019-05-15T15:44:20.077Z,17.26
2019-05-15T15:46:52.342Z,17.92
2019-05-15T15:49:23.981Z,17.33
2019-05-15T15:51:58.028Z,16.84
2019-05-15T15:54:29.822Z,16.55
2019-05-15T15:57:20.017Z,16.25
2019-05-15T15:59:54.994Z,15.98
2019-05-15T16:02:28.099Z,15.72
2019-05-15T16:05:00.217Z,15.48
2019-05-15T16:07:34.885Z,15.28
2019-05-15T16:10:09.855Z,15.10
2019-05-15T16:12:41.944Z,15.84
2019-05-15T16:15:18.090Z,17.50
2019-05-15T16:17:49.381Z,17.60
2019-05-15T16:20:23.147Z,17.02
2019-05-15T16:22:56.158Z,16.71
2019-05-15T16:25:28.860Z,16.35
2019-05-15T16:28:01.449Z,16.07
2019-05-15T16:30:47.223Z,15.84
2019-05-15T16:33:09.694Z,15.58
2019-05-15T16:35:40.705Z,15.35
2019-05-15T16:38:12.623Z,15.15
2019-05-15T16:40:48.924Z,15.38
2019-05-15T16:43:23.907Z,16.94
2019-05-15T16:45:58.704Z,17.74
2019-05-15T16:48:30.601Z,17.25
2019-05-15T16:51:09.094Z,16.77
2019-05-15T16:53:40.236Z,16.43
2019-05-15T16:56:12.363Z,16.14
2019-05-15T16:58:48.166Z,15.80
2019-05-15T17:01:20.120Z,15.52
2019-05-15T17:03:51.777Z,15.28
2019-05-15T17:06:23.537Z,15.01
2019-05-15T17:08:55.300Z,14.77
2019-05-15T17:11:28.889Z,14.58
2019-05-15T17:14:00.567Z,14.34
2019-05-15T17:16:32.435Z,15.30
2019-05-15T17:19:04.583Z,16.93
2019-05-15T17:21:37.856Z,17.05
2019-05-15T17:24:11.586Z,16.42
2019-05-15T17:26:43.486Z,15.87
2019-05-15T17:29:15.206Z,15.43
2019-05-15T17:31:50.222Z,15.10
2019-05-15T17:34:28.433Z,14.73
2019-05-15T17:36:59.071Z,15.58
2019-05-15T17:39:36.704Z,17.14
2019-05-15T17:42:06.462Z,17.54
2019-05-15T17:44:38.386Z,16.83
2019-05-15T17:47:10.340Z,16.24
2019-05-15T17:49:43.513Z,15.77
2019-05-15T17:52:18.363Z,15.27
2019-05-15T17:54:50.416Z,14.86
2019-05-15T17:57:23.207Z,14.47
2019-05-15T17:59:54.850Z,14.10
2019-05-15T18:02:28.772Z,15.04
2019-05-15T18:05:31.824Z,16.59
2019-05-15T18:08:19.397Z,18.07
2019-05-15T18:10:50.669Z,17.67
2019-05-15T18:13:22.488Z,16.86
2019-05-15T18:16:01.903Z,16.12
2019-05-15T18:18:31.148Z,15.60
2019-05-15T18:21:02.918Z,15.04
2019-05-15T18:23:35.922Z,14.63
2019-05-15T18:26:09.024Z,15.72
2019-05-15T18:28:44.096Z,17.10
2019-05-15T18:31:18.110Z,17.02
2019-05-15T18:33:54.368Z,16.15
2019-05-15T18:36:28.711Z,15.49
2019-05-15T18:39:00.869Z,14.87
2019-05-15T18:41:34.133Z,14.27
2019-05-15T18:44:07.865Z,15.11
2019-05-15T18:46:42.588Z,16.22
2019-05-15T18:49:14.356Z,15.87
2019-05-15T18:51:47.890Z,15.15
2019-05-15T18:54:21.232Z,14.45
2019-05-15T18:56:54.659Z,14.83
2019-05-15T18:59:27.000Z,16.24
2019-05-15T19:01:58.826Z,17.43
2019-05-15T19:04:31.798Z,17.21
2019-05-15T19:07:09.886Z,16.21
2019-05-15T19:09:42.825Z,15.48
2019-05-15T19:12:14.533Z,14.91
2019-05-15T19:14:46.076Z,14.38
2019-05-15T19:17:18.918Z,14.15
2019-05-15T19:19:51.534Z,15.49
2019-05-15T19:22:23.171Z,16.83
2019-05-15T19:24:58.323Z,16.62
2019-05-15T19:27:32.843Z,15.83
2019-05-15T19:30:08.308Z,15.13
2019-05-15T19:32:40.074Z,14.51
2019-05-15T19:35:12.060Z,14.68
2019-05-15T19:37:44.450Z,15.91
2019-05-15T19:40:18.768Z,16.35
2019-05-15T19:42:51.295Z,15.60
2019-05-15T19:45:24.755Z,14.88
2019-05-15T19:47:58.744Z,14.34
2019-05-15T19:50:32.042Z,15.05
2019-05-15T19:53:03.971Z,16.32
2019-05-15T19:55:35.739Z,16.39
2019-05-15T19:58:08.993Z,15.65
2019-05-15T20:00:42.572Z,14.87
2019-05-15T20:03:23.804Z,14.38
2019-05-15T20:06:01.650Z,15.58
2019-05-15T20:08:33.484Z,17.02
2019-05-15T20:11:06.244Z,17.01
2019-05-15T20:13:44.764Z,16.17
2019-05-15T20:16:21.070Z,15.38
2019-05-15T20:18:50.383Z,14.77
2019-05-15T20:21:26.191Z,14.23
2019-05-15T20:23:58.328Z,15.00
2019-05-15T20:26:31.913Z,16.33
2019-05-15T20:29:08.910Z,16.43
2019-05-15T20:31:48.214Z,15.65
2019-05-15T20:34:19.105Z,14.93
2019-05-15T20:36:53.898Z,14.32
2019-05-15T20:39:26.893Z,15.05
2019-05-15T20:42:00.664Z,16.43
2019-05-15T20:44:34.588Z,16.94
2019-05-15T20:47:09.538Z,16.07
2019-05-15T20:49:44.538Z,15.31
